Archival Weather

Al Ahsa

Al Ahsa, Saudi Arabia (OEAH)

Report from: Friday, May 26, 2023 1:00 AM +03
Current time: Monday, July 22, 2024 1:05 PM +03

Current weather – Weather history – Daily summaries
Weather forecast

Temperature30.0°C (86.0°F)
Heat index28.5°C (83.3°F)
Dew point8.0°C (46.4°F)
Winds Calm
Clouds Sky clear
Altimeter29.74 in.Hg (1007 mB)
Relative humidity25 %
Density altitude2,085 ft. (635 m)
Remarks Ceiling and visibility OK
No significant changes expected in the next two hours
Flight conditions Visual Meteorological Conditions
Raw dataOEAH 252200Z 00000KT CAVOK 30/08 Q1007 NOSIG
An error has occurred. This application may no longer respond until reloaded. Reload 🗙